Time;durP1;ratioP1;P1;durP2;ratioP2;P2;SDS_P1;SDS_P2;PMS_P1;PMS_P2;Temp;Humidity;BMP_temperature;BMP_pressure;BME280_temperature;BME280_humidity;BME280_pressure;Samples;Min_cycle;Max_cycle;Signal;HPM_P1;HPM_P2
2022/05/26 00:01:59;;;;;;;1.13;0.80;;;;;;;15.34;69.14;97145.44;5055017;28;20195;-59
2022/05/26 00:04:27;;;;;;;2.87;1.37;;;;;;;15.26;71.08;97134.75;5055566;28;20207;-57
2022/05/26 00:06:55;;;;;;;0.97;0.97;;;;;;;15.37;68.86;97137.16;5054922;28;20254;-57
2022/05/26 00:09:24;;;;;;;1.67;0.70;;;;;;;15.35;69.28;97133.78;5054936;28;20589;-56
2022/05/26 00:11:51;;;;;;;3.60;1.30;;;;;;;15.30;69.59;97144.13;5051799;28;20211;-58
2022/05/26 00:14:19;;;;;;;2.80;0.80;;;;;;;15.26;70.74;97145.44;5054316;28;20210;-58
2022/05/26 00:16:47;;;;;;;3.23;1.10;;;;;;;15.27;69.29;97144.41;5055040;28;20207;-60
2022/05/26 00:19:17;;;;;;;2.80;1.03;;;;;;;15.20;71.04;97156.69;5055054;28;20222;-60
2022/05/26 00:21:45;;;;;;;1.63;0.80;;;;;;;15.16;70.72;97153.50;5055041;28;20620;-59
2022/05/26 00:24:11;;;;;;;1.93;0.87;;;;;;;15.10;71.92;97148.00;5052829;28;20215;-59
2022/05/26 00:26:40;;;;;;;1.10;0.60;;;;;;;15.08;70.89;97150.00;5054659;28;20671;-54
2022/05/26 00:29:07;;;;;;;3.67;0.90;;;;;;;15.06;70.65;97146.63;5054502;28;20526;-55
2022/05/26 00:31:34;;;;;;;2.57;0.70;;;;;;;15.02;72.38;97153.31;5053078;28;20257;-55
2022/05/26 00:34:00;;;;;;;2.47;0.87;;;;;;;15.01;73.07;97154.28;5054788;28;20207;-54
2022/05/26 00:36:41;;;;;;;1.33;1.10;;;;;;;15.07;71.72;97153.63;5055151;28;20236;-55
2022/05/26 00:39:09;;;;;;;1.13;1.00;;;;;;;15.07;71.72;97150.97;5054959;28;20574;-55
2022/05/26 00:41:44;;;;;;;2.13;1.07;;;;;;;14.96;73.12;97149.41;5054584;28;20199;-55
2022/05/26 00:44:11;;;;;;;3.10;0.83;;;;;;;15.00;72.33;97147.28;5055283;28;20217;-55
2022/05/26 00:46:41;;;;;;;1.60;1.00;;;;;;;15.10;71.80;97150.66;5054888;28;20585;-53
2022/05/26 00:49:17;;;;;;;0.73;0.70;;;;;;;15.02;71.58;97146.13;5054332;28;20199;-54
2022/05/26 00:51:44;;;;;;;0.90;0.80;;;;;;;14.97;72.52;97144.94;5042737;28;20642;-54
2022/05/26 00:54:14;;;;;;;1.50;0.70;;;;;;;14.98;73.47;97143.94;5054322;28;20210;-56
2022/05/26 00:56:45;;;;;;;1.67;0.80;;;;;;;14.99;73.07;97148.25;5054818;28;20553;-54
2022/05/26 00:59:15;;;;;;;2.30;0.70;;;;;;;14.99;72.72;97150.94;5057272;28;20533;-55
2022/05/26 01:01:42;;;;;;;1.27;0.80;;;;;;;14.98;73.17;97155.44;5058326;28;20229;-54
2022/05/26 01:04:12;;;;;;;1.30;1.00;;;;;;;14.97;73.42;97147.59;5055920;28;20207;-55
2022/05/26 01:06:43;;;;;;;3.80;0.73;;;;;;;14.95;72.71;97153.91;5048151;28;20590;-54
2022/05/26 01:09:09;;;;;;;1.60;0.90;;;;;;;14.90;75.33;97153.56;5058059;28;20210;-55
2022/05/26 01:11:38;;;;;;;2.30;0.70;;;;;;;15.00;72.63;97155.25;5057064;28;20200;-54
2022/05/26 01:14:12;;;;;;;1.30;0.60;;;;;;;14.98;71.12;97154.59;5055896;28;20655;-54
2022/05/26 01:16:44;;;;;;;2.23;0.90;;;;;;;14.96;71.54;97146.75;5058297;28;20217;-55
2022/05/26 01:19:29;;;;;;;0.87;0.53;;;;;;;14.93;71.85;97152.41;5058102;28;20203;-55
2022/05/26 01:21:58;;;;;;;2.53;0.60;;;;;;;14.89;73.27;97149.22;5058364;28;20226;-54
2022/05/26 01:24:56;;;;;;;1.47;0.70;;;;;;;14.87;72.50;97151.22;5065142;28;20195;-56
2022/05/26 01:27:27;;;;;;;0.60;0.60;;;;;;;14.91;72.54;97154.41;5069793;28;20227;-55
2022/05/26 01:30:07;;;;;;;1.07;0.70;;;;;;;14.77;73.59;97153.13;5065763;28;20195;-55
2022/05/26 01:32:50;;;;;;;0.80;0.80;;;;;;;14.72;73.58;97146.63;5060128;28;20210;-55
2022/05/26 01:35:26;;;;;;;2.47;0.70;;;;;;;14.69;72.60;97138.94;5057988;28;20611;-55
2022/05/26 01:38:05;;;;;;;0.90;0.80;;;;;;;14.66;72.64;97156.06;5058028;28;20194;-53
2022/05/26 01:40:37;;;;;;;3.40;0.60;;;;;;;14.51;75.29;97156.78;5057810;28;20199;-53
2022/05/26 01:43:11;;;;;;;1.53;0.57;;;;;;;14.42;75.56;97153.19;5056706;28;20235;-55
2022/05/26 01:45:46;;;;;;;2.37;0.80;;;;;;;14.45;73.26;97159.06;5057116;28;20207;-55
2022/05/26 01:48:17;;;;;;;0.60;0.60;;;;;;;14.26;75.61;97158.38;5057017;28;20933;-56
2022/05/26 01:50:45;;;;;;;2.60;0.90;;;;;;;14.19;76.24;97152.00;5056972;28;20234;-54
2022/05/26 01:53:26;;;;;;;1.63;0.57;;;;;;;14.18;75.87;97160.94;5057244;28;20290;-53
2022/05/26 01:55:59;;;;;;;2.93;0.83;;;;;;;14.04;76.49;97153.50;5057476;28;20214;-55
2022/05/26 01:58:32;;;;;;;2.20;0.80;;;;;;;13.88;78.38;97151.53;5057283;28;20701;-53
2022/05/26 02:01:03;;;;;;;1.97;0.80;;;;;;;14.01;76.83;97161.78;5057324;28;20206;-55
2022/05/26 02:03:35;;;;;;;1.80;0.90;;;;;;;13.98;76.91;97151.47;5056853;28;20639;-54
2022/05/26 02:06:07;;;;;;;2.03;0.80;;;;;;;13.92;75.97;97156.38;5052957;28;20208;-55
2022/05/26 02:08:43;;;;;;;2.07;0.60;;;;;;;13.88;76.26;97149.72;5049014;28;20227;-54
2022/05/26 02:11:14;;;;;;;1.17;0.70;;;;;;;13.75;77.69;97159.88;5058599;28;20213;-54
2022/05/26 02:13:44;;;;;;;1.47;0.70;;;;;;;13.67;78.32;97153.66;5051577;28;20195;-55
2022/05/26 02:16:19;;;;;;;3.07;1.00;;;;;;;13.72;77.80;97154.84;5057451;28;20231;-54
2022/05/26 02:18:53;;;;;;;2.43;0.90;;;;;;;13.71;76.08;97155.03;5056170;28;21087;-56
2022/05/26 02:21:25;;;;;;;0.60;0.60;;;;;;;13.74;75.85;97171.50;5056888;28;20215;-55
2022/05/26 02:23:56;;;;;;;1.57;0.80;;;;;;;13.78;75.28;97164.06;5057079;28;20206;-55
2022/05/26 02:26:23;;;;;;;1.57;1.00;;;;;;;13.66;76.80;97159.94;5056808;28;20620;-53
2022/05/26 02:31:34;;;;;;;0.80;0.80;;;;;;;13.51;77.91;97170.22;5056962;28;20210;-54
2022/05/26 02:34:02;;;;;;;2.00;1.13;;;;;;;13.55;76.89;97163.63;5056401;28;20215;-54
2022/05/26 02:36:34;;;;;;;1.83;0.70;;;;;;;13.35;79.22;97167.41;5043414;28;20215;-54
2022/05/26 02:39:03;;;;;;;2.37;1.20;;;;;;;13.42;77.38;97168.47;5055681;28;20203;-55
2022/05/26 02:41:31;;;;;;;1.00;0.90;;;;;;;13.38;77.17;97165.28;5056758;28;20207;-55
2022/05/26 02:43:58;;;;;;;1.47;0.77;;;;;;;13.20;80.42;97166.19;5056550;28;20210;-53
2022/05/26 02:46:34;;;;;;;3.03;1.23;;;;;;;13.13;80.61;97162.44;5053717;28;20211;-54
2022/05/26 02:49:14;;;;;;;0.70;0.70;;;;;;;13.17;79.79;97171.81;5053515;28;20214;-54
2022/05/26 02:51:42;;;;;;;0.93;0.73;;;;;;;13.10;80.73;97174.22;5056647;28;20286;-55
2022/05/26 02:54:19;;;;;;;3.40;0.90;;;;;;;13.09;80.72;97174.31;5057116;28;20203;-54
2022/05/26 02:56:51;;;;;;;2.00;0.97;;;;;;;13.15;80.90;97176.41;5056854;28;20251;-55
2022/05/26 02:59:28;;;;;;;0.67;0.67;;;;;;;13.21;79.81;97186.47;5056509;28;20218;-55
2022/05/26 03:01:58;;;;;;;3.50;1.00;;;;;;;13.30;79.18;97180.25;5056792;28;20218;-56
2022/05/26 03:04:30;;;;;;;1.27;0.90;;;;;;;13.37;79.36;97181.34;5056009;28;20199;-56
2022/05/26 03:07:00;;;;;;;1.07;0.73;;;;;;;13.36;80.85;97183.16;5057184;28;20218;-55
2022/05/26 03:09:27;;;;;;;1.33;0.97;;;;;;;13.43;80.54;97186.06;5055969;28;20563;-54
2022/05/26 03:11:56;;;;;;;0.80;0.80;;;;;;;13.42;81.21;97179.09;5052686;28;20541;-56
2022/05/26 03:14:24;;;;;;;2.00;0.73;;;;;;;13.48;81.02;97194.44;5045705;28;20199;-56
2022/05/26 03:16:51;;;;;;;0.63;0.63;;;;;;;13.54;80.44;97187.69;5056635;28;20211;-55
2022/05/26 03:19:18;;;;;;;4.00;1.07;;;;;;;13.56;81.52;97191.91;5055224;28;20213;-55
2022/05/26 03:21:48;;;;;;;2.17;1.00;;;;;;;13.62;80.30;97199.25;5055556;28;20214;-56
2022/05/26 03:24:15;;;;;;;1.87;0.80;;;;;;;13.64;81.05;97193.81;5054555;28;20202;-55
2022/05/26 03:26:42;;;;;;;2.10;1.07;;;;;;;13.68;80.24;97198.66;5057741;28;20257;-56
2022/05/26 03:29:08;;;;;;;1.70;0.80;;;;;;;13.70;80.81;97194.06;5058425;28;20238;-55
2022/05/26 03:31:35;;;;;;;3.40;0.67;;;;;;;13.72;80.90;97196.53;5059279;28;20528;-55
2022/05/26 03:42:19;;;;;;;0.83;0.50;;;;;;;13.82;80.85;97203.47;5077185;28;20197;-57
2022/05/26 03:44:49;;;;;;;0.90;0.80;;;;;;;13.87;79.94;97201.22;5074312;28;20266;-55
2022/05/26 03:47:17;;;;;;;2.30;0.97;;;;;;;13.89;81.48;97209.03;5076023;28;20199;-56
2022/05/26 03:49:44;;;;;;;1.47;0.97;;;;;;;13.87;82.93;97201.22;5077180;28;20198;-55
2022/05/26 03:52:12;;;;;;;1.00;1.00;;;;;;;13.86;82.85;97210.16;5071259;28;20214;-55
2022/05/26 03:54:40;;;;;;;2.93;0.93;;;;;;;13.89;81.68;97212.53;5063925;28;20211;-55
2022/05/26 03:57:08;;;;;;;1.00;0.70;;;;;;;13.89;83.50;97204.53;5058600;28;20211;-55
2022/05/26 03:59:35;;;;;;;1.73;0.90;;;;;;;13.91;83.32;97199.94;5055168;28;20207;-55
2022/05/26 04:02:04;;;;;;;1.03;0.70;;;;;;;13.94;83.00;97199.63;5054671;28;20207;-55
2022/05/26 04:04:33;;;;;;;1.00;0.70;;;;;;;13.99;82.75;97203.66;5055170;28;20362;-54
2022/05/26 04:06:59;;;;;;;1.57;0.83;;;;;;;14.01;82.18;97213.16;5054967;28;20234;-54
2022/05/26 04:09:27;;;;;;;1.23;1.00;;;;;;;14.07;81.20;97211.72;5048776;28;20235;-53
2022/05/26 04:11:53;;;;;;;3.63;0.80;;;;;;;14.12;80.11;97212.09;5047203;28;20203;-55
2022/05/26 04:14:21;;;;;;;2.13;0.70;;;;;;;14.11;81.36;97216.59;5054827;28;20249;-54
2022/05/26 04:16:48;;;;;;;0.97;0.80;;;;;;;14.16;81.43;97232.94;5054647;28;20635;-56
2022/05/26 04:19:15;;;;;;;2.40;0.77;;;;;;;14.25;81.12;97226.69;5054429;28;20214;-55
2022/05/26 04:22:15;;;;;;;0.80;0.73;;;;;;;14.22;80.38;97237.66;5051648;28;20671;-55
2022/05/26 04:24:30;;;;;;;1.60;0.87;;;;;;;14.24;82.53;97242.84;5054405;28;20299;-54
2022/05/26 04:27:09;;;;;;;1.37;0.97;;;;;;;14.25;82.22;97234.69;5054939;28;20225;-54
2022/05/26 04:29:36;;;;;;;2.67;0.87;;;;;;;14.28;81.80;97242.34;5054409;28;20230;-53
2022/05/26 04:32:04;;;;;;;1.63;1.17;;;;;;;14.31;79.91;97246.56;5055915;28;20218;-54
2022/05/26 04:34:33;;;;;;;0.90;0.70;;;;;;;14.33;80.55;97250.72;5059185;28;20207;-55
2022/05/26 04:37:00;;;;;;;0.97;0.80;;;;;;;14.38;79.80;97245.81;5053451;28;20211;-56
2022/05/26 04:39:28;;;;;;;1.77;0.73;;;;;;;14.36;81.42;97252.28;5050385;28;20211;-54
2022/05/26 04:41:58;;;;;;;1.47;1.03;;;;;;;14.43;82.51;97245.34;5058752;28;20211;-55
2022/05/26 04:44:26;;;;;;;1.80;0.70;;;;;;;14.49;81.06;97239.41;5058855;28;20271;-54
2022/05/26 04:46:52;;;;;;;1.83;1.00;;;;;;;14.49;80.59;97247.41;5045946;28;20210;-53
2022/05/26 04:49:19;;;;;;;1.60;0.80;;;;;;;14.53;80.70;97256.75;5058064;28;20233;-55
2022/05/26 04:51:46;;;;;;;1.27;0.90;;;;;;;14.58;80.69;97251.81;5057502;28;20199;-55
2022/05/26 04:54:12;;;;;;;1.00;0.70;;;;;;;14.60;82.48;97259.66;5058323;28;20580;-55
2022/05/26 04:56:39;;;;;;;1.53;0.97;;;;;;;14.66;81.03;97259.06;5051025;28;20218;-54
2022/05/26 04:59:08;;;;;;;2.30;1.90;;;;;;;14.63;82.33;97259.38;5051878;28;20548;-55
2022/05/26 05:01:35;;;;;;;1.67;1.57;;;;;;;14.68;83.36;97259.72;5051757;28;20208;-55
2022/05/26 05:04:01;;;;;;;1.67;1.07;;;;;;;14.72;84.89;97266.41;5056527;28;20257;-53
2022/05/26 05:06:28;;;;;;;1.70;0.90;;;;;;;14.81;83.64;97266.31;5058571;28;20597;-54
2022/05/26 05:08:55;;;;;;;1.47;0.90;;;;;;;14.93;82.92;97267.75;5057431;28;20223;-54
2022/05/26 05:11:22;;;;;;;1.00;0.90;;;;;;;15.01;81.23;97266.16;5059220;28;20218;-54
2022/05/26 05:13:50;;;;;;;1.90;0.90;;;;;;;15.09;81.89;97266.22;5053303;28;20214;-55
2022/05/26 05:16:22;;;;;;;0.97;0.80;;;;;;;15.19;78.42;97266.94;5057896;28;20206;-55
2022/05/26 05:18:50;;;;;;;0.97;0.80;;;;;;;15.30;81.95;97266.69;5058123;28;20214;-56
2022/05/26 05:21:20;;;;;;;0.80;0.60;;;;;;;15.40;81.75;97272.75;5058405;28;20297;-54
2022/05/26 05:23:48;;;;;;;0.60;0.60;;;;;;;15.50;80.85;97278.00;5057161;28;20202;-55
2022/05/26 05:26:18;;;;;;;2.15;1.10;;;;;;;15.57;79.89;97279.88;5057353;28;20199;-55
2022/05/26 05:28:57;;;;;;;1.27;0.90;;;;;;;15.60;78.32;97276.88;5057128;28;20243;-53
2022/05/26 05:31:30;;;;;;;1.63;1.43;;;;;;;15.77;76.38;97286.63;5058559;28;20262;-55
2022/05/26 05:33:59;;;;;;;2.20;1.47;;;;;;;15.86;76.42;97287.53;5058218;28;20203;-54
2022/05/26 05:36:27;;;;;;;1.15;0.75;;;;;;;16.03;75.35;97296.41;5058002;28;20210;-55
2022/05/26 05:38:55;;;;;;;1.02;0.95;;;;;;;16.07;72.16;97287.09;5058043;28;20215;-56
2022/05/26 05:41:22;;;;;;;2.38;0.80;;;;;;;16.21;70.31;97289.16;5056702;28;20211;-54
2022/05/26 05:43:49;;;;;;;1.10;1.00;;;;;;;16.61;70.52;97286.63;5056992;28;20214;-55
2022/05/26 05:46:19;;;;;;;1.33;1.10;;;;;;;17.01;67.06;97292.97;5056989;28;20642;-55
2022/05/26 05:48:50;;;;;;;1.00;1.00;;;;;;;17.29;66.84;97296.94;5057622;28;20242;-54
2022/05/26 05:51:18;;;;;;;1.55;1.05;;;;;;;17.61;67.00;97298.75;5056945;28;20199;-55
2022/05/26 05:53:45;;;;;;;1.70;1.05;;;;;;;17.70;65.31;97295.91;5057536;28;20199;-56
2022/05/26 05:56:12;;;;;;;2.80;1.00;;;;;;;17.88;63.68;97295.69;5057384;28;20241;-54
2022/05/26 05:58:38;;;;;;;2.25;1.02;;;;;;;17.80;62.97;97296.56;5057533;28;20203;-56
2022/05/26 06:01:07;;;;;;;1.25;1.00;;;;;;;17.81;61.76;97303.59;5057538;28;20243;-55
2022/05/26 06:03:34;;;;;;;1.25;1.00;;;;;;;17.68;63.78;97305.94;5077968;28;20207;-55
2022/05/26 06:06:04;;;;;;;0.80;0.70;;;;;;;17.62;63.77;97303.97;5079281;28;20252;-54
2022/05/26 06:08:32;;;;;;;1.23;0.80;;;;;;;17.72;63.80;97299.25;5075942;28;20734;-54
2022/05/26 06:10:58;;;;;;;2.25;0.82;;;;;;;17.90;61.96;97296.34;5060887;28;20206;-55
2022/05/26 06:13:25;;;;;;;0.90;0.80;;;;;;;18.16;60.46;97301.44;5051586;28;20213;-54
2022/05/26 06:15:51;;;;;;;0.85;0.65;;;;;;;18.57;62.56;97296.72;5056908;28;20206;-55
2022/05/26 06:18:19;;;;;;;1.73;1.02;;;;;;;18.94;59.10;97295.97;5057227;28;20210;-54
2022/05/26 06:20:46;;;;;;;0.70;0.70;;;;;;;19.35;57.76;97289.25;5057039;28;20542;-56
2022/05/26 06:23:17;;;;;;;4.05;1.23;;;;;;;19.80;57.35;97293.69;5056733;28;20207;-54
2022/05/26 06:25:43;;;;;;;0.70;0.60;;;;;;;20.12;56.42;97303.22;5044016;28;20214;-54
2022/05/26 06:30:59;;;;;;;1.88;0.70;;;;;;;20.65;51.58;97302.84;5056761;28;20296;-56
2022/05/26 06:38:59;;;;;;;2.35;0.73;;;;;;;21.69;48.68;97314.81;5056437;28;20206;-56
2022/05/26 06:44:12;;;;;;;1.33;0.75;;;;;;;21.67;47.64;97317.72;5056299;28;20295;-56
2022/05/26 06:46:38;;;;;;;2.90;0.77;;;;;;;21.82;47.27;97310.34;5050673;28;20650;-55
2022/05/26 06:49:06;;;;;;;0.73;0.73;;;;;;;22.07;47.72;97320.72;5053284;28;20219;-55
2022/05/26 06:51:36;;;;;;;1.50;0.90;;;;;;;22.16;48.38;97317.63;5056332;28;20222;-55
2022/05/26 06:54:05;;;;;;;1.23;0.75;;;;;;;22.17;47.08;97323.88;5055964;28;20229;-55
2022/05/26 06:56:32;;;;;;;0.80;0.80;;;;;;;22.30;46.82;97329.31;5056515;28;20217;-55
2022/05/26 06:59:01;;;;;;;1.25;0.57;;;;;;;22.39;43.40;97322.72;5056185;28;20638;-55
2022/05/26 07:01:29;;;;;;;1.55;0.95;;;;;;;22.80;44.08;97320.00;5056745;28;20591;-56
2022/05/26 07:03:57;;;;;;;0.60;0.60;;;;;;;22.76;43.26;97324.13;5055650;28;20218;-56
2022/05/26 07:06:26;;;;;;;2.63;0.88;;;;;;;23.22;45.95;97318.84;5056686;28;20203;-56
2022/05/26 07:08:53;;;;;;;1.00;0.68;;;;;;;23.11;44.75;97325.69;5060197;28;20241;-56
2022/05/26 07:11:21;;;;;;;0.57;0.57;;;;;;;23.19;43.69;97324.66;5069081;28;20270;-57
2022/05/26 07:13:48;;;;;;;2.53;0.90;;;;;;;23.21;41.36;97327.97;5051339;28;20289;-56
2022/05/26 07:16:15;;;;;;;2.13;0.70;;;;;;;23.25;41.35;97315.72;5055958;28;20218;-57
2022/05/26 07:18:43;;;;;;;0.82;0.70;;;;;;;23.05;43.62;97322.97;5054698;28;20261;-56
2022/05/26 07:21:11;;;;;;;1.23;0.82;;;;;;;23.11;44.87;97328.38;5055944;28;20306;-56
2022/05/26 07:23:41;;;;;;;2.03;0.90;;;;;;;23.32;44.81;97324.66;5055553;28;20199;-57
2022/05/26 07:26:09;;;;;;;1.50;0.80;;;;;;;23.45;42.56;97324.72;5055516;28;20200;-57
2022/05/26 07:28:40;;;;;;;1.85;0.90;;;;;;;23.43;42.35;97334.88;5055431;28;20246;-56
2022/05/26 07:31:07;;;;;;;1.55;0.77;;;;;;;22.98;42.98;97333.75;5055529;28;20623;-57
2022/05/26 07:33:36;;;;;;;1.30;0.90;;;;;;;22.81;43.62;97327.06;5055751;28;20210;-56
2022/05/26 07:36:03;;;;;;;1.30;0.60;;;;;;;23.21;42.30;97333.38;5055470;28;20245;-55
2022/05/26 07:41:19;;;;;;;1.40;0.77;;;;;;;23.58;40.72;97334.69;5055569;28;20203;-56
2022/05/26 07:43:52;;;;;;;1.10;0.80;;;;;;;23.65;42.42;97330.09;5043108;28;20577;-55
2022/05/26 07:46:21;;;;;;;0.70;0.60;;;;;;;23.65;41.11;97328.25;5055314;28;20218;-55
2022/05/26 07:48:47;;;;;;;0.77;0.60;;;;;;;23.12;43.63;97330.03;5055152;28;20725;-55
2022/05/26 07:51:14;;;;;;;3.17;0.90;;;;;;;23.03;41.58;97330.41;5055280;28;20214;-56
2022/05/26 07:53:42;;;;;;;1.55;0.52;;;;;;;22.44;42.55;97335.59;5055251;28;20631;-56
2022/05/26 07:56:13;;;;;;;1.17;0.90;;;;;;;21.96;47.57;97337.41;5055414;28;20572;-55
2022/05/26 07:58:40;;;;;;;1.95;0.90;;;;;;;21.42;47.51;97335.31;5056031;28;20273;-55
2022/05/26 08:01:09;;;;;;;2.67;0.70;;;;;;;21.10;47.04;97339.38;5055679;28;20215;-55
2022/05/26 08:03:37;;;;;;;1.80;0.85;;;;;;;20.90;48.93;97340.16;5051224;28;20253;-55
2022/05/26 08:06:03;;;;;;;1.40;1.08;;;;;;;21.00;48.93;97340.69;5050103;28;20299;-54
2022/05/26 08:08:31;;;;;;;1.05;0.70;;;;;;;21.21;49.38;97338.03;5046770;28;20215;-55
2022/05/26 08:10:58;;;;;;;1.13;0.70;;;;;;;21.05;49.57;97343.59;5047780;28;20199;-55
2022/05/26 08:13:28;;;;;;;0.95;0.73;;;;;;;21.66;47.22;97337.59;5048966;28;20199;-55
2022/05/26 08:15:55;;;;;;;0.93;0.70;;;;;;;22.08;47.69;97341.19;5056344;28;20255;-57
2022/05/26 08:18:25;;;;;;;2.55;0.68;;;;;;;22.49;44.81;97339.38;5052983;28;20209;-54
2022/05/26 08:20:54;;;;;;;1.33;0.75;;;;;;;22.86;44.58;97334.53;5067216;28;20330;-56
2022/05/26 08:23:23;;;;;;;0.93;0.60;;;;;;;23.57;41.00;97338.41;5071950;28;20234;-55
2022/05/26 08:25:50;;;;;;;3.08;0.80;;;;;;;23.75;44.63;97338.63;5076117;28;20203;-57
2022/05/26 08:28:17;;;;;;;1.35;0.70;;;;;;;23.83;41.53;97341.13;5057959;28;20249;-57
2022/05/26 08:30:48;;;;;;;1.30;0.63;;;;;;;24.42;42.34;97338.31;5055727;28;20289;-56
2022/05/26 08:33:17;;;;;;;1.13;0.77;;;;;;;24.18;40.63;97337.13;5055373;28;20218;-56
2022/05/26 08:35:45;;;;;;;0.75;0.45;;;;;;;23.35;41.46;97335.03;5054481;28;20252;-57
2022/05/26 08:38:11;;;;;;;1.25;0.80;;;;;;;22.74;42.52;97345.09;5055422;28;20222;-56
2022/05/26 08:40:42;;;;;;;0.88;0.60;;;;;;;22.57;42.25;97352.66;5054828;28;20211;-56
2022/05/26 08:43:15;;;;;;;1.02;0.85;;;;;;;22.33;42.82;97351.31;5054751;28;20302;-55
2022/05/26 08:45:45;;;;;;;1.98;0.77;;;;;;;21.89;44.38;97344.59;5054046;28;20199;-57
2022/05/26 08:48:16;;;;;;;1.25;0.75;;;;;;;21.54;43.52;97344.50;5054514;28;20207;-57
2022/05/26 08:50:44;;;;;;;1.02;0.57;;;;;;;21.35;46.15;97345.19;5054383;28;20230;-55
2022/05/26 08:53:12;;;;;;;2.65;0.70;;;;;;;21.09;47.68;97364.56;5054825;28;20211;-57
2022/05/26 08:55:43;;;;;;;2.20;0.90;;;;;;;21.08;45.02;97362.06;5054861;28;20215;-57
2022/05/26 08:58:12;;;;;;;0.90;0.57;;;;;;;20.92;47.41;97360.44;5054951;28;20210;-56
2022/05/26 09:00:43;;;;;;;1.45;0.73;;;;;;;20.81;46.82;97358.25;5054853;28;20207;-56
2022/05/26 09:03:23;;;;;;;0.82;0.60;;;;;;;21.31;47.45;97363.56;5054806;28;20210;-56
2022/05/26 09:05:54;;;;;;;1.17;0.77;;;;;;;21.27;43.89;97366.84;5055166;28;20215;-55
2022/05/26 09:13:52;;;;;;;1.63;0.70;;;;;;;22.12;43.46;97353.25;5050408;28;20650;-57
2022/05/26 09:16:23;;;;;;;0.90;0.82;;;;;;;22.28;45.15;97355.66;5054885;28;20590;-56
2022/05/26 09:19:12;;;;;;;2.35;0.55;;;;;;;21.93;44.48;97356.66;5058102;28;20271;-56
2022/05/26 09:21:40;;;;;;;1.58;1.05;;;;;;;21.78;46.01;97357.56;5049426;28;20279;-57
2022/05/26 09:24:19;;;;;;;2.08;0.73;;;;;;;21.98;48.12;97354.19;5057314;28;20241;-56
2022/05/26 09:26:48;;;;;;;1.60;0.77;;;;;;;21.82;44.50;97361.50;5064954;28;20211;-56
2022/05/26 09:29:16;;;;;;;0.75;0.75;;;;;;;21.97;46.75;97366.00;5065163;28;20246;-56
2022/05/26 09:31:47;;;;;;;1.77;1.40;;;;;;;21.81;45.56;97351.78;5052395;28;20207;-56
2022/05/26 09:34:18;;;;;;;1.95;0.70;;;;;;;22.61;44.53;97356.63;5065630;28;20210;-56
2022/05/26 09:36:49;;;;;;;1.30;0.77;;;;;;;22.50;45.62;97362.56;5062341;28;20215;-57
2022/05/26 09:39:19;;;;;;;0.77;0.75;;;;;;;22.38;44.71;97357.97;5061832;28;20237;-56
2022/05/26 09:41:49;;;;;;;0.75;0.60;;;;;;;22.26;45.21;97361.22;5061456;28;20215;-56
2022/05/26 09:44:44;;;;;;;0.50;0.40;;;;;;;23.08;42.59;97354.94;5048731;28;20280;-56
2022/05/26 09:47:29;;;;;;;1.42;0.70;;;;;;;23.30;41.11;97357.28;5053439;28;20199;-56
2022/05/26 09:49:58;;;;;;;4.30;0.80;;;;;;;23.31;42.55;97358.09;5063770;28;20246;-56
2022/05/26 09:52:30;;;;;;;1.45;0.85;;;;;;;23.36;42.04;97358.31;5062495;28;20211;-56
2022/05/26 09:55:12;;;;;;;2.28;0.80;;;;;;;23.82;43.60;97365.63;5061659;28;20233;-56
2022/05/26 09:57:40;;;;;;;1.17;0.95;;;;;;;23.85;41.95;97357.94;5061431;28;20214;-56
2022/05/26 10:00:18;;;;;;;2.42;1.35;;;;;;;23.93;43.08;97359.59;5061811;28;20260;-56
2022/05/26 10:02:46;;;;;;;1.58;0.90;;;;;;;24.24;41.98;97362.47;5060245;28;20277;-55
2022/05/26 10:05:15;;;;;;;0.82;0.70;;;;;;;24.39;42.18;97363.06;5058634;28;20199;-55
2022/05/26 10:07:57;;;;;;;0.68;0.68;;;;;;;24.63;41.53;97372.34;5066157;28;20217;-56
2022/05/26 10:10:31;;;;;;;1.50;0.77;;;;;;;24.19;41.32;97359.59;5069811;28;20211;-56
2022/05/26 10:13:11;;;;;;;1.58;0.77;;;;;;;23.94;42.25;97359.41;5059422;28;20699;-55
2022/05/26 10:15:50;;;;;;;2.10;1.13;;;;;;;24.49;39.69;97360.75;5064701;28;20203;-55
2022/05/26 10:18:29;;;;;;;0.88;0.88;;;;;;;24.51;41.27;97355.97;5061675;28;20214;-55
2022/05/26 10:21:01;;;;;;;0.65;0.60;;;;;;;24.35;40.66;97352.88;5040876;28;20207;-55
2022/05/26 10:23:39;;;;;;;1.20;0.90;;;;;;;24.01;39.97;97354.81;5054016;28;20307;-55
2022/05/26 10:26:13;;;;;;;2.40;1.00;;;;;;;24.33;41.10;97358.53;5051950;28;20204;-56
2022/05/26 10:29:18;;;;;;;1.15;0.90;;;;;;;24.35;38.64;97359.13;5060049;28;20242;-54
2022/05/26 10:31:58;;;;;;;1.63;0.80;;;;;;;24.57;41.38;97355.09;5068173;28;20279;-56
2022/05/26 10:34:56;;;;;;;1.48;0.75;;;;;;;24.76;40.87;97356.09;5052914;28;20234;-56
2022/05/26 10:37:30;;;;;;;1.13;1.00;;;;;;;25.09;40.95;97345.94;5055825;28;20211;-56
2022/05/26 10:40:06;;;;;;;1.67;1.58;;;;;;;25.33;38.55;97355.16;5078254;28;20172;-55
2022/05/26 10:42:37;;;;;;;2.25;1.10;;;;;;;25.48;37.67;97361.09;5078917;28;20203;-56
2022/05/26 10:45:10;;;;;;;0.75;0.70;;;;;;;24.86;38.62;97351.06;5072792;28;20225;-56
2022/05/26 10:47:41;;;;;;;1.65;1.00;;;;;;;25.24;39.31;97348.34;5070648;28;20638;-56
2022/05/26 10:50:16;;;;;;;1.85;0.73;;;;;;;25.44;38.24;97338.19;5054170;28;20279;-56
2022/05/26 10:52:46;;;;;;;1.20;0.60;;;;;;;25.68;36.86;97347.44;5062065;28;20209;-55
2022/05/26 10:55:16;;;;;;;0.82;0.68;;;;;;;25.73;40.48;97340.28;5061241;28;20268;-55
2022/05/26 10:57:47;;;;;;;1.40;0.70;;;;;;;25.44;38.22;97335.50;5061017;28;20393;-55
2022/05/26 11:00:16;;;;;;;0.80;0.80;;;;;;;25.54;39.01;97333.16;5058246;28;20206;-56
2022/05/26 11:02:49;;;;;;;2.40;1.15;;;;;;;25.88;39.43;97329.13;5057125;28;20203;-56
2022/05/26 11:05:20;;;;;;;0.75;0.60;;;;;;;26.13;40.91;97329.91;5057525;28;20203;-56
2022/05/26 11:07:50;;;;;;;2.55;0.90;;;;;;;25.79;37.62;97330.44;5051543;28;20218;-56
2022/05/26 11:10:24;;;;;;;1.73;1.55;;;;;;;25.78;36.85;97327.97;5052293;28;20238;-56
2022/05/26 11:12:54;;;;;;;5.63;1.20;;;;;;;25.61;39.42;97317.66;5050466;28;20199;-56
2022/05/26 11:18:10;;;;;;;0.88;0.80;;;;;;;25.70;40.55;97326.38;5056728;28;20214;-56
2022/05/26 11:20:41;;;;;;;1.85;0.82;;;;;;;25.88;36.92;97317.44;5052292;28;20218;-57
2022/05/26 11:23:08;;;;;;;0.82;0.70;;;;;;;25.91;37.19;97317.00;5048214;28;20207;-57
2022/05/26 11:25:38;;;;;;;1.30;0.82;;;;;;;25.42;35.47;97324.06;5056000;28;20222;-55
2022/05/26 11:28:10;;;;;;;0.80;0.80;;;;;;;25.66;38.29;97315.13;5054543;28;20235;-57
2022/05/26 11:36:17;;;;;;;0.77;0.70;;;;;;;25.66;38.26;97314.31;5056681;28;20210;-57
2022/05/26 11:38:45;;;;;;;1.42;0.93;;;;;;;25.71;35.94;97320.72;5056930;28;20230;-56
2022/05/26 11:41:16;;;;;;;2.00;1.90;;;;;;;25.79;35.64;97313.38;5057103;28;20207;-55
2022/05/26 11:44:00;;;;;;;1.67;0.60;;;;;;;25.64;37.42;97317.25;5057486;28;20305;-56
2022/05/26 11:47:00;;;;;;;1.55;0.60;;;;;;;25.95;36.32;97312.78;5056751;28;20223;-56
2022/05/26 11:50:04;;;;;;;1.02;0.57;;;;;;;26.06;36.10;97315.59;5054018;28;20278;-57
2022/05/26 11:52:59;;;;;;;1.35;1.20;;;;;;;25.97;36.00;97310.69;5062215;28;20202;-55
2022/05/26 11:55:31;;;;;;;1.60;0.90;;;;;;;25.69;36.98;97303.84;5077536;28;20233;-56
2022/05/26 11:58:18;;;;;;;0.80;0.50;;;;;;;25.54;36.30;97306.06;5077998;28;20179;-55
2022/05/26 12:00:46;;;;;;;0.85;0.70;;;;;;;25.38;36.16;97306.59;5077498;28;20178;-56
2022/05/26 12:03:30;;;;;;;2.38;0.70;;;;;;;25.12;37.88;97307.59;5077961;28;20310;-56
2022/05/26 12:06:05;;;;;;;0.55;0.50;;;;;;;25.09;36.44;97304.50;5076289;28;20187;-56
2022/05/26 12:08:36;;;;;;;1.52;0.80;;;;;;;25.05;38.11;97308.69;5076996;28;20246;-57
2022/05/26 12:11:06;;;;;;;1.92;0.90;;;;;;;25.22;39.14;97297.13;5077002;28;20702;-56
2022/05/26 12:13:37;;;;;;;1.95;0.60;;;;;;;25.12;36.07;97304.06;5076846;28;20309;-56
2022/05/26 12:16:28;;;;;;;1.20;0.80;;;;;;;25.43;38.85;97295.94;5067423;28;20212;-56
2022/05/26 12:18:57;;;;;;;1.30;0.80;;;;;;;25.49;36.48;97303.16;5054716;28;20588;-55
2022/05/26 12:21:50;;;;;;;1.17;0.65;;;;;;;25.35;37.59;97303.50;5054304;28;20218;-55
2022/05/26 12:24:49;;;;;;;2.30;0.85;;;;;;;25.53;38.05;97307.13;5052710;28;20261;-57
2022/05/26 12:27:59;;;;;;;0.82;0.68;;;;;;;25.67;38.50;97289.72;5053244;28;20202;-57
2022/05/26 12:30:36;;;;;;;1.27;1.17;;;;;;;25.39;37.15;97300.13;5053669;28;20250;-56
2022/05/26 12:33:14;;;;;;;1.40;1.30;;;;;;;24.89;40.07;97295.69;5054894;28;20611;-56